sensor_id;sensor_type;location;lat;lon;timestamp;temperature;humidity
77727;SHT30;66894;51.570;7.000;2023-03-01T00:01:15;-3.10;90.33
77727;SHT30;66894;51.570;7.000;2023-03-01T00:03:44;-3.13;90.56
77727;SHT30;66894;51.570;7.000;2023-03-01T00:06:11;-3.10;91.18
77727;SHT30;66894;51.570;7.000;2023-03-01T00:08:37;-3.10;91.24
77727;SHT30;66894;51.570;7.000;2023-03-01T00:11:17;-3.11;91.25
77727;SHT30;66894;51.570;7.000;2023-03-01T00:13:48;-3.14;91.30
77727;SHT30;66894;51.570;7.000;2023-03-01T00:16:24;-3.14;91.66
77727;SHT30;66894;51.570;7.000;2023-03-01T00:18:51;-3.15;91.86
77727;SHT30;66894;51.570;7.000;2023-03-01T00:21:17;-3.17;92.03
77727;SHT30;66894;51.570;7.000;2023-03-01T00:23:45;-3.15;92.25
77727;SHT30;66894;51.570;7.000;2023-03-01T00:26:13;-3.17;92.12
77727;SHT30;66894;51.570;7.000;2023-03-01T00:28:39;-3.15;91.86
77727;SHT30;66894;51.570;7.000;2023-03-01T00:31:15;-3.15;91.66
77727;SHT30;66894;51.570;7.000;2023-03-01T00:33:43;-3.14;91.42
77727;SHT30;66894;51.570;7.000;2023-03-01T00:36:11;-3.17;91.42
77727;SHT30;66894;51.570;7.000;2023-03-01T00:38:42;-3.21;91.37
77727;SHT30;66894;51.570;7.000;2023-03-01T00:41:16;-3.24;91.59
77727;SHT30;66894;51.570;7.000;2023-03-01T00:43:44;-3.25;91.78
77727;SHT30;66894;51.570;7.000;2023-03-01T00:46:16;-3.27;91.87
77727;SHT30;66894;51.570;7.000;2023-03-01T00:48:44;-3.24;91.90
77727;SHT30;66894;51.570;7.000;2023-03-01T00:51:16;-3.25;91.88
77727;SHT30;66894;51.570;7.000;2023-03-01T00:53:50;-3.25;91.86
77727;SHT30;66894;51.570;7.000;2023-03-01T00:56:17;-3.25;91.66
77727;SHT30;66894;51.570;7.000;2023-03-01T00:58:43;-3.25;91.72
77727;SHT30;66894;51.570;7.000;2023-03-01T01:01:22;-3.33;91.59
77727;SHT30;66894;51.570;7.000;2023-03-01T01:04:00;-3.34;91.69
77727;SHT30;66894;51.570;7.000;2023-03-01T01:06:31;-3.34;92.02
77727;SHT30;66894;51.570;7.000;2023-03-01T01:08:59;-3.37;92.38
77727;SHT30;66894;51.570;7.000;2023-03-01T01:11:28;-3.35;92.86
77727;SHT30;66894;51.570;7.000;2023-03-01T01:13:55;-3.33;93.17
77727;SHT30;66894;51.570;7.000;2023-03-01T01:16:24;-3.34;93.02
77727;SHT30;66894;51.570;7.000;2023-03-01T01:18:53;-3.34;92.74
77727;SHT30;66894;51.570;7.000;2023-03-01T01:21:22;-3.37;92.61
77727;SHT30;66894;51.570;7.000;2023-03-01T01:23:49;-3.41;92.56
77727;SHT30;66894;51.570;7.000;2023-03-01T01:26:25;-3.43;92.62
77727;SHT30;66894;51.570;7.000;2023-03-01T01:28:54;-3.43;92.66
77727;SHT30;66894;51.570;7.000;2023-03-01T01:31:21;-3.45;92.33
77727;SHT30;66894;51.570;7.000;2023-03-01T01:33:50;-3.43;92.15
77727;SHT30;66894;51.570;7.000;2023-03-01T01:36:17;-3.44;92.17
77727;SHT30;66894;51.570;7.000;2023-03-01T01:38:42;-3.45;92.21
77727;SHT30;66894;51.570;7.000;2023-03-01T01:41:09;-3.45;92.33
77727;SHT30;66894;51.570;7.000;2023-03-01T01:44:28;-3.47;92.41
77727;SHT30;66894;51.570;7.000;2023-03-01T01:46:52;-3.51;92.57
77727;SHT30;66894;51.570;7.000;2023-03-01T01:49:41;-3.50;92.48
77727;SHT30;66894;51.570;7.000;2023-03-01T01:52:24;-3.50;92.30
77727;SHT30;66894;51.570;7.000;2023-03-01T01:55:03;-3.43;92.62
77727;SHT30;66894;51.570;7.000;2023-03-01T01:57:45;-3.33;92.71
77727;SHT30;66894;51.570;7.000;2023-03-01T02:00:19;-3.23;92.62
77727;SHT30;66894;51.570;7.000;2023-03-01T02:03:04;-3.10;92.26
77727;SHT30;66894;51.570;7.000;2023-03-01T02:05:51;-3.06;92.25
77727;SHT30;66894;51.570;7.000;2023-03-01T02:08:27;-3.00;92.30
77727;SHT30;66894;51.570;7.000;2023-03-01T02:10:56;-2.97;92.27
77727;SHT30;66894;51.570;7.000;2023-03-01T02:13:25;-2.93;91.99
77727;SHT30;66894;51.570;7.000;2023-03-01T02:15:52;-2.87;91.91
77727;SHT30;66894;51.570;7.000;2023-03-01T02:18:21;-2.87;91.89
77727;SHT30;66894;51.570;7.000;2023-03-01T02:21:29;-2.83;91.86
77727;SHT30;66894;51.570;7.000;2023-03-01T02:23:49;-2.80;91.88
77727;SHT30;66894;51.570;7.000;2023-03-01T02:28:53;-2.72;91.90
77727;SHT30;66894;51.570;7.000;2023-03-01T02:31:21;-2.69;91.47
77727;SHT30;66894;51.570;7.000;2023-03-01T02:34:06;-2.62;91.54
77727;SHT30;66894;51.570;7.000;2023-03-01T02:36:47;-2.58;91.13
77727;SHT30;66894;51.570;7.000;2023-03-01T02:39:22;-2.58;91.29
77727;SHT30;66894;51.570;7.000;2023-03-01T02:41:54;-2.56;91.50
77727;SHT30;66894;51.570;7.000;2023-03-01T02:44:21;-2.59;91.76
77727;SHT30;66894;51.570;7.000;2023-03-01T02:46:51;-2.61;92.06
77727;SHT30;66894;51.570;7.000;2023-03-01T02:49:29;-2.63;92.07
77727;SHT30;66894;51.570;7.000;2023-03-01T02:52:43;-2.70;92.18
77727;SHT30;66894;51.570;7.000;2023-03-01T02:55:17;-2.80;92.20
77727;SHT30;66894;51.570;7.000;2023-03-01T02:57:46;-2.85;91.93
77727;SHT30;66894;51.570;7.000;2023-03-01T03:00:21;-2.90;91.74
77727;SHT30;66894;51.570;7.000;2023-03-01T03:02:52;-2.97;91.78
77727;SHT30;66894;51.570;7.000;2023-03-01T03:05:27;-3.03;91.91
77727;SHT30;66894;51.570;7.000;2023-03-01T03:07:55;-3.06;91.90
77727;SHT30;66894;51.570;7.000;2023-03-01T03:10:34;-3.06;91.92
77727;SHT30;66894;51.570;7.000;2023-03-01T03:13:13;-3.07;91.88
77727;SHT30;66894;51.570;7.000;2023-03-01T03:15:42;-3.08;91.97
77727;SHT30;66894;51.570;7.000;2023-03-01T03:18:15;-3.10;92.42
77727;SHT30;66894;51.570;7.000;2023-03-01T03:20:43;-3.07;92.36
77727;SHT30;66894;51.570;7.000;2023-03-01T03:23:10;-3.13;92.16
77727;SHT30;66894;51.570;7.000;2023-03-01T03:25:36;-3.13;92.02
77727;SHT30;66894;51.570;7.000;2023-03-01T03:28:06;-3.10;92.20
77727;SHT30;66894;51.570;7.000;2023-03-01T03:30:40;-3.08;91.77
77727;SHT30;66894;51.570;7.000;2023-03-01T03:33:07;-3.03;91.83
77727;SHT30;66894;51.570;7.000;2023-03-01T03:35:40;-2.97;91.80
77727;SHT30;66894;51.570;7.000;2023-03-01T03:38:09;-2.94;92.11
77727;SHT30;66894;51.570;7.000;2023-03-01T03:40:47;-2.89;92.58
77727;SHT30;66894;51.570;7.000;2023-03-01T03:43:36;-2.80;92.31
77727;SHT30;66894;51.570;7.000;2023-03-01T03:46:04;-2.72;92.01
77727;SHT30;66894;51.570;7.000;2023-03-01T03:48:34;-2.61;91.92
77727;SHT30;66894;51.570;7.000;2023-03-01T03:51:01;-2.52;91.47
77727;SHT30;66894;51.570;7.000;2023-03-01T03:53:29;-2.48;91.28
77727;SHT30;66894;51.570;7.000;2023-03-01T03:55:54;-2.41;91.01
77727;SHT30;66894;51.570;7.000;2023-03-01T03:58:24;-2.35;90.99
77727;SHT30;66894;51.570;7.000;2023-03-01T04:00:55;-2.30;90.73
77727;SHT30;66894;51.570;7.000;2023-03-01T04:03:23;-2.24;91.04
77727;SHT30;66894;51.570;7.000;2023-03-01T04:05:51;-2.20;90.96
77727;SHT30;66894;51.570;7.000;2023-03-01T04:08:20;-2.15;91.21
77727;SHT30;66894;51.570;7.000;2023-03-01T04:10:57;-2.03;91.29
77727;SHT30;66894;51.570;7.000;2023-03-01T04:13:45;-1.98;91.13
77727;SHT30;66894;51.570;7.000;2023-03-01T04:16:11;-1.97;90.91
77727;SHT30;66894;51.570;7.000;2023-03-01T04:18:36;-1.93;90.93
77727;SHT30;66894;51.570;7.000;2023-03-01T04:21:02;-1.89;90.88
77727;SHT30;66894;51.570;7.000;2023-03-01T04:23:27;-1.83;90.80
77727;SHT30;66894;51.570;7.000;2023-03-01T04:25:57;-1.76;90.45
77727;SHT30;66894;51.570;7.000;2023-03-01T04:28:31;-1.72;90.22
77727;SHT30;66894;51.570;7.000;2023-03-01T04:31:10;-1.67;90.17
77727;SHT30;66894;51.570;7.000;2023-03-01T04:33:45;-1.62;90.13
77727;SHT30;66894;51.570;7.000;2023-03-01T04:36:21;-1.54;89.95
77727;SHT30;66894;51.570;7.000;2023-03-01T04:38:49;-1.51;89.78
77727;SHT30;66894;51.570;7.000;2023-03-01T04:41:18;-1.46;89.67
77727;SHT30;66894;51.570;7.000;2023-03-01T04:43:45;-1.41;89.39
77727;SHT30;66894;51.570;7.000;2023-03-01T04:46:14;-1.39;89.32
77727;SHT30;66894;51.570;7.000;2023-03-01T04:48:43;-1.34;89.60
77727;SHT30;66894;51.570;7.000;2023-03-01T04:51:11;-1.27;89.25
77727;SHT30;66894;51.570;7.000;2023-03-01T04:53:41;-1.21;89.01
77727;SHT30;66894;51.570;7.000;2023-03-01T04:56:08;-1.15;88.78
77727;SHT30;66894;51.570;7.000;2023-03-01T04:58:34;-1.14;88.99
77727;SHT30;66894;51.570;7.000;2023-03-01T05:00:59;-1.12;88.41
77727;SHT30;66894;51.570;7.000;2023-03-01T05:03:25;-1.14;89.14
77727;SHT30;66894;51.570;7.000;2023-03-01T05:05:52;-1.09;89.40
77727;SHT30;66894;51.570;7.000;2023-03-01T05:08:18;-1.04;89.03
77727;SHT30;66894;51.570;7.000;2023-03-01T05:10:51;-1.04;89.17
77727;SHT30;66894;51.570;7.000;2023-03-01T05:13:20;-1.03;89.17
77727;SHT30;66894;51.570;7.000;2023-03-01T05:15:58;-0.98;88.95
77727;SHT30;66894;51.570;7.000;2023-03-01T05:18:29;-0.93;88.70
77727;SHT30;66894;51.570;7.000;2023-03-01T05:21:05;-0.90;88.84
77727;SHT30;66894;51.570;7.000;2023-03-01T05:23:35;-0.91;88.96
77727;SHT30;66894;51.570;7.000;2023-03-01T05:26:04;-0.91;89.28
77727;SHT30;66894;51.570;7.000;2023-03-01T05:28:31;-0.86;89.47
77727;SHT30;66894;51.570;7.000;2023-03-01T05:30:58;-0.84;89.37
77727;SHT30;66894;51.570;7.000;2023-03-01T05:33:25;-0.81;89.70
77727;SHT30;66894;51.570;7.000;2023-03-01T05:35:51;-0.74;89.34
77727;SHT30;66894;51.570;7.000;2023-03-01T05:38:20;-0.72;89.36
77727;SHT30;66894;51.570;7.000;2023-03-01T05:40:48;-0.67;89.29
77727;SHT30;66894;51.570;7.000;2023-03-01T05:43:16;-0.69;89.68
77727;SHT30;66894;51.570;7.000;2023-03-01T05:45:43;-0.67;89.81
77727;SHT30;66894;51.570;7.000;2023-03-01T05:48:10;-0.69;89.87
77727;SHT30;66894;51.570;7.000;2023-03-01T05:50:43;-0.67;89.91
77727;SHT30;66894;51.570;7.000;2023-03-01T05:53:17;-0.65;89.70
77727;SHT30;66894;51.570;7.000;2023-03-01T05:55:47;-0.57;89.54
77727;SHT30;66894;51.570;7.000;2023-03-01T05:58:16;-0.57;89.58
77727;SHT30;66894;51.570;7.000;2023-03-01T06:00:46;-0.62;89.87
77727;SHT30;66894;51.570;7.000;2023-03-01T06:03:15;-0.62;90.25
77727;SHT30;66894;51.570;7.000;2023-03-01T06:05:43;-0.60;89.99
77727;SHT30;66894;51.570;7.000;2023-03-01T06:08:10;-0.59;90.04
77727;SHT30;66894;51.570;7.000;2023-03-01T06:10:37;-0.57;90.08
77727;SHT30;66894;51.570;7.000;2023-03-01T06:13:03;-0.56;89.33
77727;SHT30;66894;51.570;7.000;2023-03-01T06:15:28;-0.52;89.07
77727;SHT30;66894;51.570;7.000;2023-03-01T06:17:55;-0.53;88.85
77727;SHT30;66894;51.570;7.000;2023-03-01T06:20:27;-0.50;89.16
77727;SHT30;66894;51.570;7.000;2023-03-01T06:22:54;-0.46;89.25
77727;SHT30;66894;51.570;7.000;2023-03-01T06:25:24;-0.46;88.64
77727;SHT30;66894;51.570;7.000;2023-03-01T06:27:51;-0.39;88.52
77727;SHT30;66894;51.570;7.000;2023-03-01T06:30:23;-0.35;88.24
77727;SHT30;66894;51.570;7.000;2023-03-01T06:32:50;-0.29;88.36
77727;SHT30;66894;51.570;7.000;2023-03-01T06:35:18;-0.21;88.36
77727;SHT30;66894;51.570;7.000;2023-03-01T06:37:45;-0.15;88.12
77727;SHT30;66894;51.570;7.000;2023-03-01T06:40:13;-0.07;87.21
77727;SHT30;66894;51.570;7.000;2023-03-01T06:42:41;0.01;87.67
77727;SHT30;66894;51.570;7.000;2023-03-01T06:45:09;-0.02;88.17
77727;SHT30;66894;51.570;7.000;2023-03-01T06:47:35;0.06;88.21
77727;SHT30;66894;51.570;7.000;2023-03-01T06:50:02;0.12;87.53
77727;SHT30;66894;51.570;7.000;2023-03-01T06:52:29;0.17;85.52
77727;SHT30;66894;51.570;7.000;2023-03-01T06:54:54;0.27;85.30
77727;SHT30;66894;51.570;7.000;2023-03-01T06:57:20;0.32;85.75
77727;SHT30;66894;51.570;7.000;2023-03-01T06:59:47;0.33;85.38
77727;SHT30;66894;51.570;7.000;2023-03-01T07:02:14;0.43;84.28
77727;SHT30;66894;51.570;7.000;2023-03-01T07:04:40;0.46;83.66
77727;SHT30;66894;51.570;7.000;2023-03-01T07:07:06;0.56;82.94
77727;SHT30;66894;51.570;7.000;2023-03-01T07:09:32;0.65;81.61
77727;SHT30;66894;51.570;7.000;2023-03-01T07:11:58;0.82;80.87
77727;SHT30;66894;51.570;7.000;2023-03-01T07:14:25;0.88;81.44
77727;SHT30;66894;51.570;7.000;2023-03-01T07:16:54;0.95;81.55
77727;SHT30;66894;51.570;7.000;2023-03-01T07:19:22;1.05;81.87
77727;SHT30;66894;51.570;7.000;2023-03-01T07:21:48;1.11;81.73
77727;SHT30;66894;51.570;7.000;2023-03-01T07:24:14;1.22;80.89
77727;SHT30;66894;51.570;7.000;2023-03-01T07:26:39;1.36;78.85
77727;SHT30;66894;51.570;7.000;2023-03-01T07:29:07;1.47;78.40
77727;SHT30;66894;51.570;7.000;2023-03-01T07:31:36;1.56;80.09
77727;SHT30;66894;51.570;7.000;2023-03-01T07:34:02;1.60;79.45
77727;SHT30;66894;51.570;7.000;2023-03-01T07:36:28;1.67;80.08
77727;SHT30;66894;51.570;7.000;2023-03-01T07:38:53;1.73;79.11
77727;SHT30;66894;51.570;7.000;2023-03-01T07:41:21;1.71;79.16
77727;SHT30;66894;51.570;7.000;2023-03-01T07:43:47;1.78;77.47
77727;SHT30;66894;51.570;7.000;2023-03-01T07:46:12;1.85;77.71
77727;SHT30;66894;51.570;7.000;2023-03-01T07:48:38;1.88;77.72
77727;SHT30;66894;51.570;7.000;2023-03-01T07:51:06;1.93;79.58
77727;SHT30;66894;51.570;7.000;2023-03-01T07:53:32;1.94;80.90
77727;SHT30;66894;51.570;7.000;2023-03-01T07:56:13;1.97;80.19
77727;SHT30;66894;51.570;7.000;2023-03-01T07:58:42;2.08;80.80
77727;SHT30;66894;51.570;7.000;2023-03-01T08:01:16;2.28;77.62
77727;SHT30;66894;51.570;7.000;2023-03-01T08:03:45;2.50;73.05
77727;SHT30;66894;51.570;7.000;2023-03-01T08:06:14;2.67;71.54
77727;SHT30;66894;51.570;7.000;2023-03-01T08:08:40;2.89;71.15
77727;SHT30;66894;51.570;7.000;2023-03-01T08:11:10;2.97;73.40
77727;SHT30;66894;51.570;7.000;2023-03-01T08:13:37;3.05;73.31
77727;SHT30;66894;51.570;7.000;2023-03-01T08:16:09;3.14;72.35
77727;SHT30;66894;51.570;7.000;2023-03-01T08:18:37;3.18;71.32
77727;SHT30;66894;51.570;7.000;2023-03-01T08:21:16;3.22;70.48
77727;SHT30;66894;51.570;7.000;2023-03-01T08:23:44;3.28;71.98
77727;SHT30;66894;51.570;7.000;2023-03-01T08:26:19;3.45;71.38
77727;SHT30;66894;51.570;7.000;2023-03-01T08:28:47;3.42;69.30
77727;SHT30;66894;51.570;7.000;2023-03-01T08:31:27;3.48;69.62
77727;SHT30;66894;51.570;7.000;2023-03-01T08:33:59;3.56;69.67
77727;SHT30;66894;51.570;7.000;2023-03-01T08:36:32;3.60;68.28
77727;SHT30;66894;51.570;7.000;2023-03-01T08:39:00;3.85;68.40
77727;SHT30;66894;51.570;7.000;2023-03-01T08:41:26;4.11;68.25
77727;SHT30;66894;51.570;7.000;2023-03-01T08:43:53;4.33;67.18
77727;SHT30;66894;51.570;7.000;2023-03-01T08:46:34;4.49;66.59
77727;SHT30;66894;51.570;7.000;2023-03-01T08:49:08;4.76;66.09
77727;SHT30;66894;51.570;7.000;2023-03-01T08:51:37;4.89;65.28
77727;SHT30;66894;51.570;7.000;2023-03-01T08:54:04;4.93;66.55
77727;SHT30;66894;51.570;7.000;2023-03-01T08:56:31;4.95;66.22
77727;SHT30;66894;51.570;7.000;2023-03-01T08:58:57;5.09;65.92
77727;SHT30;66894;51.570;7.000;2023-03-01T09:01:22;5.28;65.64
77727;SHT30;66894;51.570;7.000;2023-03-01T09:03:48;5.47;65.42
77727;SHT30;66894;51.570;7.000;2023-03-01T09:06:15;5.74;64.57
77727;SHT30;66894;51.570;7.000;2023-03-01T09:08:48;5.72;62.00
77727;SHT30;66894;51.570;7.000;2023-03-01T09:11:19;5.79;60.78
77727;SHT30;66894;51.570;7.000;2023-03-01T09:13:48;5.85;61.72
77727;SHT30;66894;51.570;7.000;2023-03-01T09:16:18;6.07;61.79
77727;SHT30;66894;51.570;7.000;2023-03-01T09:18:49;6.33;60.66
77727;SHT30;66894;51.570;7.000;2023-03-01T09:21:20;6.70;60.30
77727;SHT30;66894;51.570;7.000;2023-03-01T09:23:48;6.99;58.08
77727;SHT30;66894;51.570;7.000;2023-03-01T09:26:20;7.14;58.13
77727;SHT30;66894;51.570;7.000;2023-03-01T09:28:50;7.46;57.29
77727;SHT30;66894;51.570;7.000;2023-03-01T09:31:21;7.08;56.77
77727;SHT30;66894;51.570;7.000;2023-03-01T09:33:51;7.06;57.79
77727;SHT30;66894;51.570;7.000;2023-03-01T09:36:21;7.45;56.48
77727;SHT30;66894;51.570;7.000;2023-03-01T09:38:50;7.78;55.41
77727;SHT30;66894;51.570;7.000;2023-03-01T09:41:38;7.90;55.32
77727;SHT30;66894;51.570;7.000;2023-03-01T09:44:16;8.43;54.22
77727;SHT30;66894;51.570;7.000;2023-03-01T09:46:50;8.64;54.96
77727;SHT30;66894;51.570;7.000;2023-03-01T09:49:39;8.56;53.97
77727;SHT30;66894;51.570;7.000;2023-03-01T09:52:40;8.74;53.41
77727;SHT30;66894;51.570;7.000;2023-03-01T09:55:33;8.48;53.61
77727;SHT30;66894;51.570;7.000;2023-03-01T09:58:51;8.67;53.58
77727;SHT30;66894;51.570;7.000;2023-03-01T10:08:31;11.53;46.27
77727;SHT30;66894;51.570;7.000;2023-03-01T10:13:55;12.32;45.10
77727;SHT30;66894;51.570;7.000;2023-03-01T10:16:40;13.53;42.94
77727;SHT30;66894;51.570;7.000;2023-03-01T10:19:38;13.93;41.38
77727;SHT30;66894;51.570;7.000;2023-03-01T10:22:25;13.51;42.91
77727;SHT30;66894;51.570;7.000;2023-03-01T10:25:02;14.75;40.29
77727;SHT30;66894;51.570;7.000;2023-03-01T10:27:54;14.71;40.21
77727;SHT30;66894;51.570;7.000;2023-03-01T10:30:37;14.71;40.39
77727;SHT30;66894;51.570;7.000;2023-03-01T10:33:29;14.02;41.91
77727;SHT30;66894;51.570;7.000;2023-03-01T10:35:57;14.30;41.56
77727;SHT30;66894;51.570;7.000;2023-03-01T10:38:23;14.54;41.09
77727;SHT30;66894;51.570;7.000;2023-03-01T10:41:09;14.51;41.00
77727;SHT30;66894;51.570;7.000;2023-03-01T10:43:54;14.89;40.14
77727;SHT30;66894;51.570;7.000;2023-03-01T10:46:36;14.79;39.81
77727;SHT30;66894;51.570;7.000;2023-03-01T10:49:22;13.38;42.42
77727;SHT30;66894;51.570;7.000;2023-03-01T10:51:52;12.60;44.89
77727;SHT30;66894;51.570;7.000;2023-03-01T10:54:29;12.04;46.24
77727;SHT30;66894;51.570;7.000;2023-03-01T10:57:03;12.52;45.60
77727;SHT30;66894;51.570;7.000;2023-03-01T10:59:38;12.21;46.18
77727;SHT30;66894;51.570;7.000;2023-03-01T11:02:28;12.72;45.62
77727;SHT30;66894;51.570;7.000;2023-03-01T11:05:03;12.90;45.30
77727;SHT30;66894;51.570;7.000;2023-03-01T11:07:52;11.46;48.51
77727;SHT30;66894;51.570;7.000;2023-03-01T11:10:23;11.33;49.31
77727;SHT30;66894;51.570;7.000;2023-03-01T11:16:00;11.68;48.94
77727;SHT30;68312;53.502;10.030;2023-03-01T11:18:30;12.56;47.19
77727;SHT30;68312;53.502;10.030;2023-03-01T11:20:59;13.18;46.09
77727;SHT30;68312;53.502;10.030;2023-03-01T11:23:29;15.55;40.83
77727;SHT30;68312;53.502;10.030;2023-03-01T11:26:02;15.68;39.85
77727;SHT30;68312;53.502;10.030;2023-03-01T11:28:37;16.01;39.90
77727;SHT30;68312;53.502;10.030;2023-03-01T11:31:11;15.68;40.08
77727;SHT30;68312;53.502;10.030;2023-03-01T11:34:06;16.39;38.93
77727;SHT30;68312;53.502;10.030;2023-03-01T11:36:45;16.78;38.62
77727;SHT30;68312;53.502;10.030;2023-03-01T11:39:33;16.47;38.47
77727;SHT30;68312;53.502;10.030;2023-03-01T11:45:08;15.81;40.01
77727;SHT30;68312;53.502;10.030;2023-03-01T11:51:00;16.59;38.90
77727;SHT30;68312;53.502;10.030;2023-03-01T11:53:53;16.25;39.26
77727;SHT30;68312;53.502;10.030;2023-03-01T11:56:35;16.16;40.04
77727;SHT30;68312;53.502;10.030;2023-03-01T11:59:31;16.34;39.18
77727;SHT30;68312;53.502;10.030;2023-03-01T12:02:46;15.85;40.47
77727;SHT30;68312;53.502;10.030;2023-03-01T12:05:43;15.89;40.43
77727;SHT30;68312;53.502;10.030;2023-03-01T12:08:27;15.68;40.76
77727;SHT30;68312;53.502;10.030;2023-03-01T12:11:32;16.26;40.63
77727;SHT30;68312;53.502;10.030;2023-03-01T12:20:21;16.32;39.86
77727;SHT30;68312;53.502;10.030;2023-03-01T12:23:24;16.70;39.38
77727;SHT30;68312;53.502;10.030;2023-03-01T12:26:29;16.55;39.77
77727;SHT30;68312;53.502;10.030;2023-03-01T12:29:26;17.19;39.15
77727;SHT30;68312;53.502;10.030;2023-03-01T12:50:44;15.30;42.75
77727;SHT30;68312;53.502;10.030;2023-03-01T12:53:36;14.73;44.06
77727;SHT30;68312;53.502;10.030;2023-03-01T12:56:11;14.72;44.06
77727;SHT30;68312;53.502;10.030;2023-03-01T12:59:01;15.12;43.62
77727;SHT30;68312;53.502;10.030;2023-03-01T13:02:13;15.89;41.77
77727;SHT30;68312;53.502;10.030;2023-03-01T13:05:06;15.57;42.12
77727;SHT30;68312;53.502;10.030;2023-03-01T13:08:19;15.36;42.67
77727;SHT30;68312;53.502;10.030;2023-03-01T13:11:00;15.37;42.68
77727;SHT30;68312;53.502;10.030;2023-03-01T13:13:29;15.87;41.75
77727;SHT30;68312;53.502;10.030;2023-03-01T13:15:56;15.92;42.19
77727;SHT30;68312;53.502;10.030;2023-03-01T13:20:52;14.40;44.82
77727;SHT30;68312;53.502;10.030;2023-03-01T13:28:49;15.50;42.49
77727;SHT30;68312;53.502;10.030;2023-03-01T13:33:47;15.64;42.13
77727;SHT30;68312;53.502;10.030;2023-03-01T13:47:17;15.30;42.87
77727;SHT30;68312;53.502;10.030;2023-03-01T13:50:04;15.43;42.97
77727;SHT30;68312;53.502;10.030;2023-03-01T13:52:59;15.20;42.98
77727;SHT30;68312;53.502;10.030;2023-03-01T13:55:36;13.90;46.19
77727;SHT30;68312;53.502;10.030;2023-03-01T13:58:28;13.46;47.50
77727;SHT30;68312;53.502;10.030;2023-03-01T14:01:18;13.87;45.68
77727;SHT30;68312;53.502;10.030;2023-03-01T14:03:46;12.97;48.40
77727;SHT30;68312;53.502;10.030;2023-03-01T14:06:16;12.80;48.76
77727;SHT30;68312;53.502;10.030;2023-03-01T14:08:47;12.37;50.15
77727;SHT30;68312;53.502;10.030;2023-03-01T14:14:46;11.94;51.70
77727;SHT30;68312;53.502;10.030;2023-03-01T14:17:35;11.95;51.28
77727;SHT30;68312;53.502;10.030;2023-03-01T14:20:19;11.47;52.70
77727;SHT30;68312;53.502;10.030;2023-03-01T14:22:52;11.41;52.78
77727;SHT30;68312;53.502;10.030;2023-03-01T14:25:27;10.81;55.36
77727;SHT30;68312;53.502;10.030;2023-03-01T14:28:21;10.88;54.68
77727;SHT30;68312;53.502;10.030;2023-03-01T14:30:54;10.68;55.35
77727;SHT30;68312;53.502;10.030;2023-03-01T14:33:26;10.45;56.03
77727;SHT30;68312;53.502;10.030;2023-03-01T14:35:58;10.57;56.09
77727;SHT30;68312;53.502;10.030;2023-03-01T14:38:36;10.57;55.77
77727;SHT30;68312;53.502;10.030;2023-03-01T14:41:16;10.24;57.21
77727;SHT30;68312;53.502;10.030;2023-03-01T14:43:51;10.27;56.89
77727;SHT30;68312;53.502;10.030;2023-03-01T14:46:26;9.76;58.15
77727;SHT30;68312;53.502;10.030;2023-03-01T14:52:01;9.43;58.98
77727;SHT30;68312;53.502;10.030;2023-03-01T14:54:52;9.24;59.05
77727;SHT30;68312;53.502;10.030;2023-03-01T14:57:23;9.10;60.06
77727;SHT30;68312;53.502;10.030;2023-03-01T14:59:54;9.07;60.00
77727;SHT30;68312;53.502;10.030;2023-03-01T15:02:26;9.03;59.56
77727;SHT30;68312;53.502;10.030;2023-03-01T15:04:58;8.91;59.80
77727;SHT30;68312;53.502;10.030;2023-03-01T15:07:34;8.66;60.12
77727;SHT30;68312;53.502;10.030;2023-03-01T15:10:07;8.62;60.70
77727;SHT30;68312;53.502;10.030;2023-03-01T15:12:44;8.63;61.10
77727;SHT30;68312;53.502;10.030;2023-03-01T15:17:59;8.39;60.74
77727;SHT30;68312;53.502;10.030;2023-03-01T15:20:29;8.24;61.47
77727;SHT30;68312;53.502;10.030;2023-03-01T15:23:01;8.25;61.16
77727;SHT30;68312;53.502;10.030;2023-03-01T15:25:29;8.26;60.98
77727;SHT30;68312;53.502;10.030;2023-03-01T15:27:59;8.09;61.54
77727;SHT30;68312;53.502;10.030;2023-03-01T15:30:32;7.97;61.88
77727;SHT30;68312;53.502;10.030;2023-03-01T15:35:53;7.87;62.26
77727;SHT30;68312;53.502;10.030;2023-03-01T15:38:52;7.77;63.25
77727;SHT30;68312;53.502;10.030;2023-03-01T15:41:46;7.64;63.30
77727;SHT30;68312;53.502;10.030;2023-03-01T15:44:27;7.59;63.83
77727;SHT30;68312;53.502;10.030;2023-03-01T15:46:55;7.57;63.91
77727;SHT30;68312;53.502;10.030;2023-03-01T15:49:42;7.50;64.15
77727;SHT30;68312;53.502;10.030;2023-03-01T15:52:23;7.46;64.22
77727;SHT30;68312;53.502;10.030;2023-03-01T15:55:00;7.45;63.55
77727;SHT30;68312;53.502;10.030;2023-03-01T15:57:28;7.36;64.14
77727;SHT30;68312;53.502;10.030;2023-03-01T15:59:54;7.33;63.61
77727;SHT30;68312;53.502;10.030;2023-03-01T16:02:21;7.27;64.36
77727;SHT30;68312;53.502;10.030;2023-03-01T16:04:48;7.23;64.40
77727;SHT30;68312;53.502;10.030;2023-03-01T16:07:15;7.22;64.22
77727;SHT30;68312;53.502;10.030;2023-03-01T16:09:41;7.15;64.77
77727;SHT30;68312;53.502;10.030;2023-03-01T16:12:14;7.04;64.87
77727;SHT30;68312;53.502;10.030;2023-03-01T16:14:42;6.96;64.97
77727;SHT30;68312;53.502;10.030;2023-03-01T16:17:07;6.91;65.14
77727;SHT30;68312;53.502;10.030;2023-03-01T16:19:36;6.89;65.47
77727;SHT30;68312;53.502;10.030;2023-03-01T16:22:03;6.83;65.53
77727;SHT30;68312;53.502;10.030;2023-03-01T16:24:29;6.78;65.77
77727;SHT30;68312;53.502;10.030;2023-03-01T16:26:56;6.71;65.70
77727;SHT30;68312;53.502;10.030;2023-03-01T16:29:21;6.64;66.01
77727;SHT30;68312;53.502;10.030;2023-03-01T16:31:47;6.53;65.23
77727;SHT30;68312;53.502;10.030;2023-03-01T16:34:13;6.43;65.11
77727;SHT30;68312;53.502;10.030;2023-03-01T16:36:38;6.32;65.00
77727;SHT30;68312;53.502;10.030;2023-03-01T16:39:04;6.22;65.34
77727;SHT30;68312;53.502;10.030;2023-03-01T16:41:31;6.13;65.17
77727;SHT30;68312;53.502;10.030;2023-03-01T16:43:57;6.03;65.80
77727;SHT30;68312;53.502;10.030;2023-03-01T16:46:27;5.92;65.82
77727;SHT30;68312;53.502;10.030;2023-03-01T16:48:55;5.85;66.22
77727;SHT30;68312;53.502;10.030;2023-03-01T16:51:22;5.79;66.93
77727;SHT30;68312;53.502;10.030;2023-03-01T16:53:49;5.74;67.66
77727;SHT30;68312;53.502;10.030;2023-03-01T16:56:17;5.67;68.34
77727;SHT30;68312;53.502;10.030;2023-03-01T16:58:44;5.51;68.99
77727;SHT30;68312;53.502;10.030;2023-03-01T17:01:14;5.38;69.47
77727;SHT30;68312;53.502;10.030;2023-03-01T17:03:43;5.37;70.30
77727;SHT30;68312;53.502;10.030;2023-03-01T17:06:14;5.30;70.65
77727;SHT30;68312;53.502;10.030;2023-03-01T17:08:42;5.27;70.85
77727;SHT30;68312;53.502;10.030;2023-03-01T17:11:14;5.17;71.30
77727;SHT30;68312;53.502;10.030;2023-03-01T17:13:42;5.17;70.62
77727;SHT30;68312;53.502;10.030;2023-03-01T17:16:12;5.24;69.57
77727;SHT30;68312;53.502;10.030;2023-03-01T17:18:40;5.34;69.45
77727;SHT30;68312;53.502;10.030;2023-03-01T17:21:07;5.36;67.91
77727;SHT30;68312;53.502;10.030;2023-03-01T17:23:35;5.52;67.59
77727;SHT30;68312;53.502;10.030;2023-03-01T17:26:02;5.52;67.65
77727;SHT30;68312;53.502;10.030;2023-03-01T17:28:30;5.52;68.42
77727;SHT30;68312;53.502;10.030;2023-03-01T17:30:59;5.52;69.84